createdAt,value
2023-04-20T00:02:50.896Z,6.47
2023-04-20T00:05:54.396Z,6.85
2023-04-20T00:08:57.130Z,6.38
2023-04-20T00:11:59.868Z,6.20
2023-04-20T00:15:02.541Z,6.47
2023-04-20T00:18:05.364Z,6.32
2023-04-20T00:21:09.369Z,7.00
2023-04-20T00:24:12.022Z,7.13
2023-04-20T00:27:14.595Z,6.78
2023-04-20T00:30:17.369Z,5.57
2023-04-20T00:33:19.959Z,6.38
2023-04-20T00:36:22.684Z,5.88
2023-04-20T00:39:25.841Z,6.38
2023-04-20T00:42:29.996Z,6.68
2023-04-20T00:45:32.644Z,7.73
2023-04-20T00:48:35.399Z,6.28
2023-04-20T00:51:39.878Z,7.00
2023-04-20T00:54:42.886Z,7.13
2023-04-20T00:57:45.656Z,7.20
2023-04-20T01:00:48.377Z,7.37
2023-04-20T01:03:54.155Z,6.45
2023-04-20T01:06:57.345Z,6.35
2023-04-20T01:10:00.062Z,7.75
2023-04-20T01:13:03.655Z,6.80
2023-04-20T01:16:06.585Z,5.60
2023-04-20T01:19:09.126Z,7.22
2023-04-20T01:22:19.459Z,6.60
2023-04-20T01:25:22.333Z,5.82
2023-04-20T01:28:26.921Z,6.55
2023-04-20T01:31:29.763Z,5.50
2023-04-20T01:34:34.256Z,5.93
2023-04-20T01:37:36.942Z,7.25
2023-04-20T01:40:39.524Z,6.05
2023-04-20T01:43:42.211Z,7.13
2023-04-20T01:46:44.822Z,6.90
2023-04-20T01:49:49.202Z,6.78
2023-04-20T01:52:52.273Z,6.82
2023-04-20T01:55:55.559Z,7.05
2023-04-20T01:58:59.134Z,6.40
2023-04-20T02:02:03.146Z,6.97
2023-04-20T02:05:09.227Z,6.30
2023-04-20T02:08:11.879Z,6.68
2023-04-20T02:11:15.711Z,6.28
2023-04-20T02:14:18.328Z,6.80
2023-04-20T02:17:21.145Z,6.67
2023-04-20T02:20:24.342Z,6.38
2023-04-20T02:23:27.230Z,6.10
2023-04-20T02:26:31.234Z,6.38
2023-04-20T02:29:33.725Z,6.97
2023-04-20T02:32:36.799Z,6.27
2023-04-20T02:35:39.395Z,6.88
2023-04-20T02:38:41.978Z,7.10
2023-04-20T02:41:44.843Z,6.35
2023-04-20T02:44:48.241Z,6.47
2023-04-20T02:47:51.480Z,6.33
2023-04-20T02:50:57.435Z,5.88
2023-04-20T02:54:02.137Z,6.10
2023-04-20T02:57:05.427Z,9.68
2023-04-20T03:00:09.645Z,6.47
2023-04-20T03:03:29.316Z,5.83
2023-04-20T03:06:32.794Z,6.05
2023-04-20T03:09:37.085Z,6.40
2023-04-20T03:12:49.856Z,6.75
2023-04-20T03:15:58.421Z,5.18
2023-04-20T03:19:13.842Z,5.80
2023-04-20T03:22:19.327Z,6.32
2023-04-20T03:25:24.598Z,7.68
2023-04-20T03:28:42.508Z,6.13
2023-04-20T03:31:48.418Z,6.60
2023-04-20T03:34:51.238Z,6.80
2023-04-20T03:37:53.883Z,5.97
2023-04-20T03:40:56.445Z,6.63
2023-04-20T03:43:59.343Z,6.07
2023-04-20T03:47:01.906Z,6.18
2023-04-20T03:50:05.159Z,6.00
2023-04-20T03:53:07.761Z,5.93
2023-04-20T03:56:10.561Z,6.10
2023-04-20T03:59:13.378Z,6.78
2023-04-20T04:02:19.524Z,6.03
2023-04-20T04:05:23.069Z,5.80
2023-04-20T04:08:26.859Z,5.78
2023-04-20T04:11:30.373Z,6.28
2023-04-20T04:14:35.278Z,6.07
2023-04-20T04:17:39.181Z,5.72
2023-04-20T04:20:41.924Z,6.03
2023-04-20T04:23:47.549Z,6.10
2023-04-20T04:27:05.350Z,6.25
2023-04-20T04:30:14.435Z,5.50
2023-04-20T04:33:19.243Z,5.82
2023-04-20T04:36:27.163Z,7.80
2023-04-20T04:39:32.401Z,5.97
2023-04-20T04:42:45.974Z,6.15
2023-04-20T04:45:49.979Z,6.35
2023-04-20T04:48:56.604Z,6.18
2023-04-20T04:52:00.311Z,6.30
2023-04-20T04:55:08.217Z,5.82
2023-04-20T04:58:16.110Z,6.55
2023-04-20T05:01:18.811Z,7.05
2023-04-20T05:04:21.724Z,6.75
2023-04-20T05:07:24.931Z,6.80
2023-04-20T05:10:27.850Z,6.32
2023-04-20T05:13:30.632Z,6.00
2023-04-20T05:16:33.452Z,5.90
2023-04-20T05:19:36.148Z,6.88
2023-04-20T05:22:38.768Z,6.30
2023-04-20T05:25:41.405Z,6.47
2023-04-20T05:28:44.547Z,7.18
2023-04-20T05:31:47.173Z,5.70
2023-04-20T05:34:49.800Z,7.78
2023-04-20T05:37:52.314Z,7.07
2023-04-20T05:40:55.315Z,6.25
2023-04-20T05:43:58.396Z,5.95
2023-04-20T05:47:01.079Z,8.35
2023-04-20T05:50:04.553Z,7.30
2023-04-20T05:53:07.318Z,7.73
2023-04-20T05:56:11.139Z,8.57
2023-04-20T05:59:13.900Z,6.95
2023-04-20T06:02:16.578Z,7.97
2023-04-20T06:05:20.033Z,6.60
2023-04-20T06:08:23.393Z,7.93
2023-04-20T06:11:26.095Z,9.75
2023-04-20T06:14:28.822Z,8.15
2023-04-20T06:17:31.786Z,6.95
2023-04-20T06:20:34.481Z,8.95
2023-04-20T06:23:41.047Z,8.83
2023-04-20T06:26:43.852Z,7.45
2023-04-20T06:29:46.466Z,7.18
2023-04-20T06:32:49.380Z,7.78
2023-04-20T06:35:54.941Z,10.27
2023-04-20T06:38:58.033Z,9.10
2023-04-20T06:42:03.634Z,9.77
2023-04-20T06:45:07.359Z,8.77
2023-04-20T06:48:20.190Z,8.10
2023-04-20T06:51:32.621Z,9.60
2023-04-20T06:54:35.761Z,10.00
2023-04-20T06:57:43.964Z,8.63
2023-04-20T07:00:47.765Z,9.95
2023-04-20T07:03:50.567Z,9.45
2023-04-20T07:06:54.241Z,10.70
2023-04-20T07:09:57.300Z,10.87
2023-04-20T07:13:02.066Z,8.27
2023-04-20T07:16:05.145Z,9.02
2023-04-20T07:19:07.801Z,8.77
2023-04-20T07:22:10.740Z,10.23
2023-04-20T07:25:13.422Z,10.60
2023-04-20T07:28:16.139Z,11.75
2023-04-20T07:31:19.065Z,12.18
2023-04-20T07:34:22.231Z,11.20
2023-04-20T07:37:27.109Z,13.38
2023-04-20T07:40:30.527Z,15.87
2023-04-20T07:43:33.790Z,11.73
2023-04-20T07:46:36.832Z,12.27
2023-04-20T07:49:42.578Z,14.68
2023-04-20T07:52:45.757Z,12.95
2023-04-20T07:56:10.228Z,16.57
2023-04-20T08:05:43.845Z,8.20
2023-04-20T08:08:46.625Z,11.10
2023-04-20T08:11:49.447Z,10.68
2023-04-20T08:14:52.107Z,12.43
2023-04-20T08:17:54.840Z,12.23
2023-04-20T08:20:57.626Z,10.27
2023-04-20T08:24:00.547Z,9.48
2023-04-20T08:27:03.535Z,8.75
2023-04-20T08:30:07.959Z,9.63
2023-04-20T08:33:14.157Z,9.43
2023-04-20T08:36:18.233Z,11.93
2023-04-20T08:39:24.406Z,14.13
2023-04-20T08:42:27.709Z,14.77
2023-04-20T08:45:31.359Z,13.60
2023-04-20T08:48:38.234Z,9.57
2023-04-20T08:51:41.021Z,12.02
2023-04-20T08:57:50.599Z,10.18
2023-04-20T09:00:53.596Z,9.23
2023-04-20T09:03:56.437Z,10.02
2023-04-20T09:06:59.422Z,12.15
2023-04-20T09:10:02.287Z,10.57
2023-04-20T09:13:05.848Z,10.70
2023-04-20T09:16:14.704Z,13.23
2023-04-20T09:19:27.368Z,9.85
2023-04-20T09:22:35.527Z,9.13
2023-04-20T09:25:39.900Z,9.52
2023-04-20T09:28:42.600Z,9.43
2023-04-20T09:31:45.653Z,9.27
2023-04-20T09:34:48.535Z,9.40
2023-04-20T09:37:54.489Z,9.45
2023-04-20T09:41:01.922Z,9.50
2023-04-20T09:44:05.520Z,8.80
2023-04-20T09:47:19.046Z,9.87
2023-04-20T09:50:29.183Z,10.05
2023-04-20T09:53:40.273Z,7.88
2023-04-20T09:56:46.261Z,9.18
2023-04-20T09:59:53.318Z,10.55
2023-04-20T10:02:57.204Z,8.13
2023-04-20T10:05:59.963Z,9.38
2023-04-20T10:09:05.172Z,10.88
2023-04-20T10:12:09.620Z,11.60
2023-04-20T10:15:12.408Z,9.88
2023-04-20T10:18:23.981Z,11.77
2023-04-20T10:21:27.995Z,9.57
2023-04-20T10:24:31.690Z,8.70
2023-04-20T10:27:34.561Z,11.57
2023-04-20T10:30:38.246Z,10.20
2023-04-20T10:33:56.791Z,9.07
2023-04-20T10:37:13.042Z,7.68
2023-04-20T10:40:16.048Z,9.20
2023-04-20T10:43:21.511Z,9.95
2023-04-20T10:46:25.264Z,10.35
2023-04-20T10:49:29.576Z,10.07
2023-04-20T10:52:34.697Z,11.20
2023-04-20T10:55:41.701Z,11.75
2023-04-20T10:58:47.841Z,12.23
2023-04-20T11:01:52.263Z,9.98
2023-04-20T11:05:01.590Z,11.97
2023-04-20T11:08:04.994Z,10.07
2023-04-20T11:11:27.992Z,10.00
2023-04-20T11:14:36.114Z,12.32
2023-04-20T11:17:39.650Z,10.85
2023-04-20T11:20:56.379Z,11.07
2023-04-20T11:23:59.390Z,10.32
2023-04-20T11:27:04.836Z,8.98
2023-04-20T11:30:08.942Z,10.13
2023-04-20T11:33:12.085Z,10.55
2023-04-20T11:36:26.651Z,11.23
2023-04-20T11:39:30.103Z,12.02
2023-04-20T11:42:51.583Z,12.43
2023-04-20T11:45:54.427Z,10.45
2023-04-20T11:49:00.016Z,9.90
2023-04-20T11:52:03.292Z,9.67
2023-04-20T11:55:07.946Z,12.55
2023-04-20T11:58:13.242Z,9.98
2023-04-20T12:01:17.205Z,10.80
2023-04-20T12:04:20.412Z,8.27
2023-04-20T12:07:24.209Z,8.93
2023-04-20T12:10:26.827Z,10.15
2023-04-20T12:13:30.585Z,9.80
2023-04-20T12:16:33.687Z,10.57
2023-04-20T12:19:37.420Z,11.20
2023-04-20T12:22:41.433Z,10.57
2023-04-20T12:25:47.065Z,9.30
2023-04-20T12:28:49.809Z,8.20
2023-04-20T12:31:52.583Z,11.15
2023-04-20T12:34:56.267Z,11.35
2023-04-20T12:37:59.040Z,12.33
2023-04-20T12:41:02.288Z,8.75
2023-04-20T12:44:15.816Z,9.85
2023-04-20T12:47:18.689Z,10.57
2023-04-20T12:50:21.309Z,8.02
2023-04-20T12:53:23.967Z,9.13
2023-04-20T12:56:26.954Z,12.13
2023-04-20T12:59:30.035Z,10.10
2023-04-20T13:02:33.791Z,10.60
2023-04-20T13:05:38.912Z,10.85
2023-04-20T13:08:41.630Z,8.83
2023-04-20T13:11:44.774Z,10.20
2023-04-20T13:14:47.616Z,10.27
2023-04-20T13:17:50.215Z,8.63
2023-04-20T13:20:52.842Z,9.55
2023-04-20T13:23:56.988Z,46.67
2023-04-20T13:27:01.876Z,42.78
2023-04-20T13:30:06.557Z,30.15
2023-04-20T13:33:09.233Z,33.20
2023-04-20T13:36:15.490Z,29.05
2023-04-20T13:39:20.185Z,24.70
2023-04-20T13:42:23.283Z,20.77
2023-04-20T13:45:26.066Z,26.25
2023-04-20T13:48:28.636Z,22.35
2023-04-20T13:51:31.550Z,22.95
2023-04-20T13:54:34.135Z,23.60
2023-04-20T13:57:36.805Z,25.35
2023-04-20T14:00:39.685Z,20.33
2023-04-20T14:03:43.360Z,19.75
2023-04-20T14:06:46.066Z,26.08
2023-04-20T14:09:49.172Z,16.00
2023-04-20T14:12:52.512Z,17.17
2023-04-20T14:15:55.274Z,16.80
2023-04-20T14:18:58.699Z,25.35
2023-04-20T14:22:01.400Z,20.17
2023-04-20T14:25:05.993Z,22.87
2023-04-20T14:28:08.751Z,20.10
2023-04-20T14:31:11.592Z,16.73
2023-04-20T14:34:15.719Z,17.27
2023-04-20T14:37:18.890Z,16.60
2023-04-20T14:40:21.734Z,16.23
2023-04-20T14:43:24.414Z,15.35
2023-04-20T14:46:27.276Z,14.35
2023-04-20T14:49:30.284Z,15.38
2023-04-20T14:52:33.611Z,15.88
2023-04-20T14:55:36.358Z,15.87
2023-04-20T14:58:42.513Z,16.63
2023-04-20T15:01:55.294Z,18.35
2023-04-20T15:05:07.018Z,16.58
2023-04-20T15:08:12.000Z,16.75
2023-04-20T15:11:14.854Z,15.87
2023-04-20T15:14:17.659Z,19.60
2023-04-20T15:17:20.515Z,13.07
2023-04-20T15:20:23.562Z,17.05
2023-04-20T15:23:26.621Z,16.88
2023-04-20T15:26:29.324Z,16.27
2023-04-20T15:29:32.616Z,13.40
2023-04-20T15:32:35.172Z,14.55
2023-04-20T15:35:37.961Z,14.88
2023-04-20T15:38:41.564Z,13.95
2023-04-20T15:41:44.788Z,13.77
2023-04-20T15:44:47.340Z,12.80
2023-04-20T15:47:50.106Z,12.13
2023-04-20T15:50:52.971Z,15.57
2023-04-20T15:53:55.917Z,16.88
2023-04-20T15:56:58.726Z,12.17
2023-04-20T16:00:01.357Z,16.33
2023-04-20T16:03:04.847Z,13.10
2023-04-20T16:06:08.087Z,15.52
2023-04-20T16:09:10.785Z,12.85
2023-04-20T16:12:14.839Z,11.63
2023-04-20T16:15:17.505Z,14.65
2023-04-20T16:18:20.492Z,12.55
2023-04-20T16:21:23.495Z,13.98
2023-04-20T16:24:26.091Z,16.17
2023-04-20T16:27:28.789Z,12.93
2023-04-20T16:30:33.431Z,14.95
2023-04-20T16:33:37.068Z,16.35
2023-04-20T16:36:39.573Z,11.75
2023-04-20T16:39:43.780Z,13.30
2023-04-20T16:42:46.743Z,11.27
2023-04-20T16:45:49.405Z,11.82
2023-04-20T16:48:52.094Z,19.73
2023-04-20T16:51:55.002Z,12.98
2023-04-20T16:54:57.571Z,12.35
2023-04-20T16:58:00.543Z,11.53
2023-04-20T17:01:03.753Z,10.98
2023-04-20T17:04:06.887Z,10.20
2023-04-20T17:07:09.664Z,14.48
2023-04-20T17:10:12.495Z,11.18
2023-04-20T17:13:15.576Z,11.33
2023-04-20T17:16:18.306Z,10.52
2023-04-20T17:19:21.248Z,10.75
2023-04-20T17:22:25.960Z,9.52
2023-04-20T17:25:28.504Z,12.77
2023-04-20T17:28:31.472Z,11.23
2023-04-20T17:31:34.447Z,12.05
2023-04-20T17:34:37.827Z,11.13
2023-04-20T17:37:40.957Z,9.57
2023-04-20T17:40:43.633Z,9.32
2023-04-20T17:43:46.383Z,9.83
2023-04-20T17:46:51.914Z,9.18
2023-04-20T17:49:56.302Z,9.73
2023-04-20T17:52:59.081Z,10.05
2023-04-20T17:56:02.071Z,10.43
2023-04-20T17:59:07.015Z,8.53
2023-04-20T18:02:10.167Z,10.07
2023-04-20T18:05:13.022Z,8.90
2023-04-20T18:08:18.083Z,12.07
2023-04-20T18:11:23.466Z,10.90
2023-04-20T18:14:26.358Z,11.20
2023-04-20T18:17:29.008Z,10.93
2023-04-20T18:20:33.683Z,11.18
2023-04-20T18:23:38.098Z,10.02
2023-04-20T18:26:41.652Z,11.35
2023-04-20T18:29:44.593Z,11.37
2023-04-20T18:32:47.706Z,10.63
2023-04-20T18:35:50.949Z,11.20
2023-04-20T18:38:55.059Z,11.00
2023-04-20T18:41:58.290Z,11.48
2023-04-20T18:45:01.430Z,8.07
2023-04-20T18:48:04.954Z,9.00
2023-04-20T18:51:10.513Z,9.05
2023-04-20T18:54:15.608Z,7.88
2023-04-20T18:57:19.127Z,8.95
2023-04-20T19:00:23.055Z,8.60
2023-04-20T19:03:27.185Z,8.55
2023-04-20T19:06:32.046Z,10.27
2023-04-20T19:09:35.806Z,8.93
2023-04-20T19:12:39.202Z,9.32
2023-04-20T19:15:42.644Z,8.67
2023-04-20T19:18:47.386Z,8.63
2023-04-20T19:21:55.383Z,8.82
2023-04-20T19:24:58.964Z,8.82
2023-04-20T19:28:02.351Z,10.80
2023-04-20T19:31:07.175Z,9.47
2023-04-20T19:34:13.584Z,9.00
2023-04-20T19:37:17.600Z,8.13
2023-04-20T19:40:24.620Z,9.85
2023-04-20T19:43:28.825Z,11.48
2023-04-20T19:46:31.700Z,10.37
2023-04-20T19:49:36.756Z,9.30
2023-04-20T19:52:41.812Z,11.38
2023-04-20T19:55:45.056Z,9.63
2023-04-20T19:58:47.949Z,7.45
2023-04-20T20:01:52.476Z,8.47
2023-04-20T20:04:55.691Z,8.40
2023-04-20T20:07:58.360Z,7.95
2023-04-20T20:11:01.722Z,7.50
2023-04-20T20:14:04.429Z,9.77
2023-04-20T20:17:07.051Z,7.00
2023-04-20T20:20:10.537Z,7.97
2023-04-20T20:23:14.195Z,8.25
2023-04-20T20:26:17.029Z,9.10
2023-04-20T20:29:20.294Z,8.20
2023-04-20T20:32:24.886Z,7.17
2023-04-20T20:35:31.718Z,7.75
2023-04-20T20:38:34.791Z,9.25
2023-04-20T20:41:37.603Z,9.35
2023-04-20T20:44:40.215Z,7.82
2023-04-20T20:47:45.482Z,9.40
2023-04-20T20:50:51.871Z,8.73
2023-04-20T20:53:54.602Z,8.07
2023-04-20T20:56:57.724Z,8.48
2023-04-20T21:00:00.863Z,8.48
2023-04-20T21:03:03.599Z,8.87
2023-04-20T21:06:06.419Z,8.32
2023-04-20T21:09:09.412Z,7.10
2023-04-20T21:12:12.063Z,7.65
2023-04-20T21:15:14.704Z,8.35
2023-04-20T21:18:17.300Z,9.87
2023-04-20T21:21:19.956Z,9.02
2023-04-20T21:24:22.962Z,7.63
2023-04-20T21:27:25.562Z,7.53
2023-04-20T21:30:28.458Z,7.75
2023-04-20T21:33:31.085Z,7.53
2023-04-20T21:36:33.906Z,6.53
2023-04-20T21:39:36.565Z,6.63
2023-04-20T21:42:39.445Z,7.82
2023-04-20T21:45:43.295Z,7.30
2023-04-20T21:48:46.306Z,7.83
2023-04-20T21:51:48.999Z,7.65
2023-04-20T21:54:51.578Z,7.50
2023-04-20T21:57:54.201Z,8.90
2023-04-20T22:00:56.755Z,8.13
2023-04-20T22:03:59.852Z,6.70
2023-04-20T22:07:02.641Z,6.40
2023-04-20T22:10:07.053Z,7.38
2023-04-20T22:13:09.911Z,8.43
2023-04-20T22:16:12.585Z,7.32
2023-04-20T22:19:16.344Z,8.03
2023-04-20T22:22:19.074Z,7.97
2023-04-20T22:25:21.717Z,6.65
2023-04-20T22:28:24.535Z,7.03
2023-04-20T22:31:27.260Z,7.18
2023-04-20T22:34:29.864Z,6.70
2023-04-20T22:37:32.467Z,7.72
2023-04-20T22:40:38.038Z,6.28
2023-04-20T22:43:40.582Z,8.55
2023-04-20T22:46:43.206Z,8.05
2023-04-20T22:49:46.764Z,7.30
2023-04-20T22:52:50.531Z,7.13
2023-04-20T22:55:53.338Z,8.15
2023-04-20T22:58:56.294Z,5.97
2023-04-20T23:01:59.010Z,6.78
2023-04-20T23:05:01.732Z,9.90
2023-04-20T23:08:04.298Z,7.32
2023-04-20T23:11:07.116Z,9.98
2023-04-20T23:14:09.960Z,6.35
2023-04-20T23:17:12.619Z,7.93
2023-04-20T23:20:15.303Z,6.70
2023-04-20T23:23:17.904Z,7.55
2023-04-20T23:26:21.033Z,6.88
2023-04-20T23:29:23.562Z,6.05
2023-04-20T23:32:26.231Z,8.43
2023-04-20T23:35:29.458Z,6.80
2023-04-20T23:38:32.226Z,6.95
2023-04-20T23:41:34.953Z,6.70
2023-04-20T23:44:37.644Z,6.95
2023-04-20T23:47:40.392Z,5.93
2023-04-20T23:50:43.024Z,8.07
2023-04-20T23:53:46.214Z,7.40
2023-04-20T23:56:48.807Z,7.20
2023-04-20T23:59:51.485Z,7.68
